sensor_id;sensor_type;location;lat;lon;timestamp;temperature;humidity
28175;SHT30;59417;44.788;10.334;2022-11-15T00:01:55;10.84;78.49
28175;SHT30;59417;44.788;10.334;2022-11-15T00:04:39;10.78;78.75
28175;SHT30;59417;44.788;10.334;2022-11-15T00:07:29;10.78;78.84
28175;SHT30;59417;44.788;10.334;2022-11-15T00:10:13;10.78;78.96
28175;SHT30;59417;44.788;10.334;2022-11-15T00:12:57;10.91;78.07
28175;SHT30;59417;44.788;10.334;2022-11-15T00:15:41;10.75;78.66
28175;SHT30;59417;44.788;10.334;2022-11-15T00:18:27;10.75;78.64
28175;SHT30;59417;44.788;10.334;2022-11-15T00:21:12;10.77;78.34
28175;SHT30;59417;44.788;10.334;2022-11-15T00:23:58;10.74;78.52
28175;SHT30;59417;44.788;10.334;2022-11-15T00:26:42;10.71;78.63
28175;SHT30;59417;44.788;10.334;2022-11-15T00:29:26;10.63;78.90
28175;SHT30;59417;44.788;10.334;2022-11-15T00:32:20;10.56;79.22
28175;SHT30;59417;44.788;10.334;2022-11-15T00:35:14;10.59;79.02
28175;SHT30;59417;44.788;10.334;2022-11-15T00:37:58;10.50;79.26
28175;SHT30;59417;44.788;10.334;2022-11-15T00:40:42;10.54;79.12
28175;SHT30;59417;44.788;10.334;2022-11-15T00:43:26;10.51;78.78
28175;SHT30;59417;44.788;10.334;2022-11-15T00:46:11;10.57;78.72
28175;SHT30;59417;44.788;10.334;2022-11-15T00:48:55;10.54;78.59
28175;SHT30;59417;44.788;10.334;2022-11-15T00:51:40;10.41;79.02
28175;SHT30;59417;44.788;10.334;2022-11-15T00:54:24;10.45;78.98
28175;SHT30;59417;44.788;10.334;2022-11-15T00:57:09;10.41;79.01
28175;SHT30;59417;44.788;10.334;2022-11-15T00:59:53;10.47;78.67
28175;SHT30;59417;44.788;10.334;2022-11-15T01:02:37;10.43;78.93
28175;SHT30;59417;44.788;10.334;2022-11-15T01:05:22;10.45;78.93
28175;SHT30;59417;44.788;10.334;2022-11-15T01:08:15;10.52;78.60
28175;SHT30;59417;44.788;10.334;2022-11-15T01:11:05;10.36;78.67
28175;SHT30;59417;44.788;10.334;2022-11-15T01:13:49;10.17;79.47
28175;SHT30;59417;44.788;10.334;2022-11-15T01:16:34;10.12;79.95
28175;SHT30;59417;44.788;10.334;2022-11-15T01:19:18;10.05;79.99
28175;SHT30;59417;44.788;10.334;2022-11-15T01:22:02;10.08;80.12
28175;SHT30;59417;44.788;10.334;2022-11-15T01:24:46;10.03;80.21
28175;SHT30;59417;44.788;10.334;2022-11-15T01:27:31;10.10;79.95
28175;SHT30;59417;44.788;10.334;2022-11-15T01:30:15;10.08;80.11
28175;SHT30;59417;44.788;10.334;2022-11-15T01:32:59;10.10;80.48
28175;SHT30;59417;44.788;10.334;2022-11-15T01:35:44;10.21;79.83
28175;SHT30;59417;44.788;10.334;2022-11-15T01:38:28;10.23;80.01
28175;SHT30;59417;44.788;10.334;2022-11-15T01:41:19;10.27;79.69
28175;SHT30;59417;44.788;10.334;2022-11-15T01:44:31;10.14;79.63
28175;SHT30;59417;44.788;10.334;2022-11-15T01:47:28;10.10;80.05
28175;SHT30;59417;44.788;10.334;2022-11-15T01:50:16;10.16;79.95
28175;SHT30;59417;44.788;10.334;2022-11-15T01:53:01;10.13;80.21
28175;SHT30;59417;44.788;10.334;2022-11-15T01:55:46;10.19;80.36
28175;SHT30;59417;44.788;10.334;2022-11-15T01:58:31;10.31;79.80
28175;SHT30;59417;44.788;10.334;2022-11-15T02:01:16;10.41;79.28
28175;SHT30;59417;44.788;10.334;2022-11-15T02:06:53;10.33;79.56
28175;SHT30;59417;44.788;10.334;2022-11-15T02:09:39;10.33;79.43
28175;SHT30;59417;44.788;10.334;2022-11-15T02:12:23;10.21;79.70
28175;SHT30;59417;44.788;10.334;2022-11-15T02:15:08;10.24;80.18
28175;SHT30;59417;44.788;10.334;2022-11-15T02:18:04;10.37;79.64
28175;SHT30;59417;44.788;10.334;2022-11-15T02:27:24;10.21;79.77
28175;SHT30;59417;44.788;10.334;2022-11-15T02:39:15;10.29;79.15
28175;SHT30;59417;44.788;10.334;2022-11-15T02:42:11;10.26;79.37
28175;SHT30;59417;44.788;10.334;2022-11-15T02:45:25;10.29;79.18
28175;SHT30;59417;44.788;10.334;2022-11-15T02:48:12;10.36;79.11
28175;SHT30;59417;44.788;10.334;2022-11-15T02:50:57;10.33;78.81
28175;SHT30;59417;44.788;10.334;2022-11-15T02:53:42;10.47;78.08
28175;SHT30;59417;44.788;10.334;2022-11-15T02:56:26;10.33;78.51
28175;SHT30;59417;44.788;10.334;2022-11-15T02:59:33;10.20;79.58
28175;SHT30;59417;44.788;10.334;2022-11-15T03:05:57;10.33;78.79
28175;SHT30;59417;44.788;10.334;2022-11-15T03:09:01;10.31;79.05
28175;SHT30;59417;44.788;10.334;2022-11-15T03:11:50;10.36;79.38
28175;SHT30;59417;44.788;10.334;2022-11-15T03:15:06;10.44;79.35
28175;SHT30;59417;44.788;10.334;2022-11-15T03:21:08;10.45;79.07
28175;SHT30;59417;44.788;10.334;2022-11-15T03:23:55;10.44;79.34
28175;SHT30;59417;44.788;10.334;2022-11-15T03:26:43;10.40;79.49
28175;SHT30;59417;44.788;10.334;2022-11-15T03:29:35;10.34;79.69
28175;SHT30;59417;44.788;10.334;2022-11-15T03:32:26;10.26;79.51
28175;SHT30;59417;44.788;10.334;2022-11-15T03:35:19;10.31;79.96
28175;SHT30;59417;44.788;10.334;2022-11-15T03:38:23;10.31;79.67
28175;SHT30;59417;44.788;10.334;2022-11-15T03:41:18;10.38;79.90
28175;SHT30;59417;44.788;10.334;2022-11-15T03:44:36;10.44;80.01
28175;SHT30;59417;44.788;10.334;2022-11-15T03:47:29;10.45;79.95
28175;SHT30;59417;44.788;10.334;2022-11-15T03:50:17;10.56;79.47
28175;SHT30;59417;44.788;10.334;2022-11-15T03:53:02;10.61;79.08
28175;SHT30;59417;44.788;10.334;2022-11-15T03:55:47;10.67;78.42
28175;SHT30;59417;44.788;10.334;2022-11-15T03:58:31;10.68;79.20
28175;SHT30;59417;44.788;10.334;2022-11-15T04:01:15;10.70;78.96
28175;SHT30;59417;44.788;10.334;2022-11-15T04:03:59;10.63;79.17
28175;SHT30;59417;44.788;10.334;2022-11-15T04:06:43;10.65;79.48
28175;SHT30;59417;44.788;10.334;2022-11-15T04:09:27;10.56;80.34
28175;SHT30;59417;44.788;10.334;2022-11-15T04:12:11;10.57;80.26
28175;SHT30;59417;44.788;10.334;2022-11-15T04:14:55;10.48;79.88
28175;SHT30;59417;44.788;10.334;2022-11-15T04:17:53;10.52;80.47
28175;SHT30;59417;44.788;10.334;2022-11-15T04:20:38;10.41;80.64
28175;SHT30;59417;44.788;10.334;2022-11-15T04:23:41;10.52;80.06
28175;SHT30;59417;44.788;10.334;2022-11-15T04:26:37;10.57;80.17
28175;SHT30;59417;44.788;10.334;2022-11-15T04:29:21;10.61;80.15
28175;SHT30;59417;44.788;10.334;2022-11-15T04:32:20;10.61;80.38
28175;SHT30;59417;44.788;10.334;2022-11-15T04:35:05;10.65;80.58
28175;SHT30;59417;44.788;10.334;2022-11-15T04:37:49;10.81;79.11
28175;SHT30;59417;44.788;10.334;2022-11-15T04:40:33;10.89;78.38
28175;SHT30;59417;44.788;10.334;2022-11-15T04:43:17;10.87;78.78
28175;SHT30;59417;44.788;10.334;2022-11-15T04:46:01;10.82;78.34
28175;SHT30;59417;44.788;10.334;2022-11-15T04:48:45;10.78;79.25
28175;SHT30;59417;44.788;10.334;2022-11-15T04:51:29;10.77;80.06
28175;SHT30;59417;44.788;10.334;2022-11-15T04:54:13;10.89;79.19
28175;SHT30;59417;44.788;10.334;2022-11-15T04:56:57;10.87;78.68
28175;SHT30;59417;44.788;10.334;2022-11-15T04:59:41;10.89;78.50
28175;SHT30;59417;44.788;10.334;2022-11-15T05:02:25;10.85;79.00
28175;SHT30;59417;44.788;10.334;2022-11-15T05:05:29;10.91;78.81
28175;SHT30;59417;44.788;10.334;2022-11-15T05:08:13;10.91;78.85
28175;SHT30;59417;44.788;10.334;2022-11-15T05:10:57;10.94;78.76
28175;SHT30;59417;44.788;10.334;2022-11-15T05:13:42;10.95;79.13
28175;SHT30;59417;44.788;10.334;2022-11-15T05:16:26;10.96;79.41
28175;SHT30;59417;44.788;10.334;2022-11-15T05:19:10;10.94;79.30
28175;SHT30;59417;44.788;10.334;2022-11-15T05:21:55;11.09;78.52
28175;SHT30;59417;44.788;10.334;2022-11-15T05:24:39;11.08;78.57
28175;SHT30;59417;44.788;10.334;2022-11-15T05:27:23;10.96;78.75
28175;SHT30;59417;44.788;10.334;2022-11-15T05:30:07;10.92;79.18
28175;SHT30;59417;44.788;10.334;2022-11-15T05:32:53;10.94;79.19
28175;SHT30;59417;44.788;10.334;2022-11-15T05:35:40;10.91;79.26
28175;SHT30;59417;44.788;10.334;2022-11-15T05:38:25;10.82;79.72
28175;SHT30;59417;44.788;10.334;2022-11-15T05:41:10;10.88;79.85
28175;SHT30;59417;44.788;10.334;2022-11-15T05:43:54;10.84;80.36
28175;SHT30;59417;44.788;10.334;2022-11-15T05:46:42;10.92;79.88
28175;SHT30;59417;44.788;10.334;2022-11-15T05:49:35;10.95;79.31
28175;SHT30;59417;44.788;10.334;2022-11-15T05:52:24;10.94;79.96
28175;SHT30;59417;44.788;10.334;2022-11-15T05:55:10;10.99;79.44
28175;SHT30;59417;44.788;10.334;2022-11-15T05:57:54;11.04;79.33
28175;SHT30;59417;44.788;10.334;2022-11-15T06:00:38;11.02;79.49
28175;SHT30;59417;44.788;10.334;2022-11-15T06:03:23;11.01;80.12
28175;SHT30;59417;44.788;10.334;2022-11-15T06:06:07;10.95;80.51
28175;SHT30;59417;44.788;10.334;2022-11-15T06:08:51;11.04;80.44
28175;SHT30;59417;44.788;10.334;2022-11-15T06:11:35;11.05;80.25
28175;SHT30;59417;44.788;10.334;2022-11-15T06:14:19;11.11;79.99
28175;SHT30;59417;44.788;10.334;2022-11-15T06:17:03;11.15;79.77
28175;SHT30;59417;44.788;10.334;2022-11-15T06:19:47;11.19;79.43
28175;SHT30;59417;44.788;10.334;2022-11-15T06:22:34;11.18;79.36
28175;SHT30;59417;44.788;10.334;2022-11-15T06:25:18;11.09;79.86
28175;SHT30;59417;44.788;10.334;2022-11-15T06:28:02;11.08;80.54
28175;SHT30;59417;44.788;10.334;2022-11-15T06:30:47;11.06;80.84
28175;SHT30;59417;44.788;10.334;2022-11-15T06:33:31;11.08;80.77
28175;SHT30;59417;44.788;10.334;2022-11-15T06:36:16;11.09;81.35
28175;SHT30;59417;44.788;10.334;2022-11-15T06:39:05;11.09;81.47
28175;SHT30;59417;44.788;10.334;2022-11-15T06:41:49;11.15;81.35
28175;SHT30;59417;44.788;10.334;2022-11-15T06:44:37;11.15;80.96
28175;SHT30;59417;44.788;10.334;2022-11-15T06:47:22;11.12;81.09
28175;SHT30;59417;44.788;10.334;2022-11-15T06:50:06;11.13;81.47
28175;SHT30;59417;44.788;10.334;2022-11-15T06:52:51;11.09;81.35
28175;SHT30;59417;44.788;10.334;2022-11-15T06:55:35;11.25;80.11
28175;SHT30;59417;44.788;10.334;2022-11-15T06:58:21;11.13;80.99
28175;SHT30;59417;44.788;10.334;2022-11-15T07:01:07;11.15;80.85
28175;SHT30;59417;44.788;10.334;2022-11-15T07:03:52;11.11;81.39
28175;SHT30;59417;44.788;10.334;2022-11-15T07:06:36;11.11;81.36
28175;SHT30;59417;44.788;10.334;2022-11-15T07:09:20;11.08;81.27
28175;SHT30;59417;44.788;10.334;2022-11-15T07:12:05;11.08;81.48
28175;SHT30;59417;44.788;10.334;2022-11-15T07:14:49;10.99;81.68
28175;SHT30;59417;44.788;10.334;2022-11-15T07:17:33;11.06;81.81
28175;SHT30;59417;44.788;10.334;2022-11-15T07:20:18;11.11;81.99
28175;SHT30;59417;44.788;10.334;2022-11-15T07:23:03;11.13;82.22
28175;SHT30;59417;44.788;10.334;2022-11-15T07:25:49;11.18;82.61
28175;SHT30;59417;44.788;10.334;2022-11-15T07:28:34;11.16;82.75
28175;SHT30;59417;44.788;10.334;2022-11-15T07:31:18;11.20;82.81
28175;SHT30;59417;44.788;10.334;2022-11-15T07:34:02;11.19;82.87
28175;SHT30;59417;44.788;10.334;2022-11-15T07:36:47;11.25;82.36
28175;SHT30;59417;44.788;10.334;2022-11-15T07:39:31;11.26;82.61
28175;SHT30;59417;44.788;10.334;2022-11-15T07:42:15;11.30;82.78
28175;SHT30;59417;44.788;10.334;2022-11-15T07:45:19;11.30;82.22
28175;SHT30;59417;44.788;10.334;2022-11-15T07:48:04;11.39;82.14
28175;SHT30;59417;44.788;10.334;2022-11-15T07:50:49;11.26;82.50
28175;SHT30;59417;44.788;10.334;2022-11-15T07:53:33;11.25;82.59
28175;SHT30;59417;44.788;10.334;2022-11-15T07:56:17;11.35;82.09
28175;SHT30;59417;44.788;10.334;2022-11-15T07:59:02;11.30;82.14
28175;SHT30;59417;44.788;10.334;2022-11-15T08:01:46;11.32;82.69
28175;SHT30;59417;44.788;10.334;2022-11-15T08:04:31;11.33;82.66
28175;SHT30;59417;44.788;10.334;2022-11-15T08:07:15;11.33;83.17
28175;SHT30;59417;44.788;10.334;2022-11-15T08:09:59;11.29;83.64
28175;SHT30;59417;44.788;10.334;2022-11-15T08:12:44;11.35;82.74
28175;SHT30;59417;44.788;10.334;2022-11-15T08:15:29;11.39;83.11
28175;SHT30;59417;44.788;10.334;2022-11-15T08:18:15;11.42;82.34
28175;SHT30;59417;44.788;10.334;2022-11-15T08:21:00;11.43;82.18
28175;SHT30;59417;44.788;10.334;2022-11-15T08:23:45;11.42;82.85
28175;SHT30;59417;44.788;10.334;2022-11-15T08:26:29;11.38;83.19
28175;SHT30;59417;44.788;10.334;2022-11-15T08:29:14;11.38;83.50
28175;SHT30;59417;44.788;10.334;2022-11-15T08:31:58;11.39;83.02
28175;SHT30;59417;44.788;10.334;2022-11-15T08:34:42;11.36;83.44
28175;SHT30;59417;44.788;10.334;2022-11-15T08:37:26;11.46;83.53
28175;SHT30;59417;44.788;10.334;2022-11-15T08:40:10;11.55;83.08
28175;SHT30;59417;44.788;10.334;2022-11-15T08:42:55;11.45;82.98
28175;SHT30;59417;44.788;10.334;2022-11-15T08:45:39;11.42;83.32
28175;SHT30;59417;44.788;10.334;2022-11-15T08:48:23;11.33;84.32
28175;SHT30;59417;44.788;10.334;2022-11-15T08:51:07;11.27;84.32
28175;SHT30;59417;44.788;10.334;2022-11-15T08:53:51;11.40;83.35
28175;SHT30;59417;44.788;10.334;2022-11-15T08:56:36;11.43;82.89
28175;SHT30;59417;44.788;10.334;2022-11-15T08:59:20;11.35;83.37
28175;SHT30;59417;44.788;10.334;2022-11-15T09:02:04;11.40;83.71
28175;SHT30;59417;44.788;10.334;2022-11-15T09:04:49;11.47;82.83
28175;SHT30;59417;44.788;10.334;2022-11-15T09:07:33;11.49;83.06
28175;SHT30;59417;44.788;10.334;2022-11-15T09:10:17;11.52;82.54
28175;SHT30;59417;44.788;10.334;2022-11-15T09:13:28;11.47;82.73
28175;SHT30;59417;44.788;10.334;2022-11-15T09:16:12;11.57;83.03
28175;SHT30;59417;44.788;10.334;2022-11-15T09:18:59;11.60;82.55
28175;SHT30;59417;44.788;10.334;2022-11-15T09:21:43;11.57;83.10
28175;SHT30;59417;44.788;10.334;2022-11-15T09:24:27;11.62;83.11
28175;SHT30;59417;44.788;10.334;2022-11-15T09:27:11;11.57;82.71
28175;SHT30;59417;44.788;10.334;2022-11-15T09:29:57;11.57;83.31
28175;SHT30;59417;44.788;10.334;2022-11-15T09:32:41;11.56;83.31
28175;SHT30;59417;44.788;10.334;2022-11-15T09:35:25;11.60;83.70
28175;SHT30;59417;44.788;10.334;2022-11-15T09:38:09;11.63;83.94
28175;SHT30;59417;44.788;10.334;2022-11-15T09:41:10;11.64;84.45
28175;SHT30;59417;44.788;10.334;2022-11-15T09:44:11;11.64;84.38
28175;SHT30;59417;44.788;10.334;2022-11-15T09:50:40;11.71;83.34
28175;SHT30;59417;44.788;10.334;2022-11-15T09:53:14;11.76;82.94
28175;SHT30;59417;44.788;10.334;2022-11-15T09:55:58;11.78;82.90
28175;SHT30;59417;44.788;10.334;2022-11-15T10:01:08;11.81;83.37
28175;SHT30;59417;44.788;10.334;2022-11-15T10:03:39;11.84;83.15
28175;SHT30;59417;44.788;10.334;2022-11-15T10:06:23;11.80;83.04
28175;SHT30;59417;44.788;10.334;2022-11-15T10:11:24;11.71;83.94
28175;SHT30;59417;44.788;10.334;2022-11-15T10:13:53;11.81;83.68
28175;SHT30;59417;44.788;10.334;2022-11-15T10:19:20;11.86;83.50
28175;SHT30;59417;44.788;10.334;2022-11-15T10:25:16;11.84;83.21
28175;SHT30;59417;44.788;10.334;2022-11-15T10:27:44;11.88;82.76
28175;SHT30;59417;44.788;10.334;2022-11-15T10:30:13;11.80;83.53
28175;SHT30;59417;44.788;10.334;2022-11-15T10:32:41;11.83;83.59
28175;SHT30;59417;44.788;10.334;2022-11-15T10:35:24;11.90;83.20
28175;SHT30;59417;44.788;10.334;2022-11-15T10:37:51;11.94;83.30
28175;SHT30;59417;44.788;10.334;2022-11-15T10:40:21;12.08;81.80
28175;SHT30;59417;44.788;10.334;2022-11-15T10:42:47;12.09;82.25
28175;SHT30;59417;44.788;10.334;2022-11-15T10:45:26;11.87;83.05
28175;SHT30;59417;44.788;10.334;2022-11-15T10:47:52;11.80;83.71
28175;SHT30;59417;44.788;10.334;2022-11-15T10:50:30;11.91;83.54
28175;SHT30;59417;44.788;10.334;2022-11-15T10:52:56;11.81;84.39
28175;SHT30;59417;44.788;10.334;2022-11-15T10:55:30;11.95;84.29
28175;SHT30;59417;44.788;10.334;2022-11-15T10:58:06;11.86;85.23
28175;SHT30;59417;44.788;10.334;2022-11-15T11:00:45;11.90;85.11
28175;SHT30;59417;44.788;10.334;2022-11-15T11:03:35;11.90;85.20
28175;SHT30;59417;44.788;10.334;2022-11-15T11:06:16;11.81;85.78
28175;SHT30;59417;44.788;10.334;2022-11-15T11:09:04;11.88;84.64
28175;SHT30;59417;44.788;10.334;2022-11-15T11:11:48;11.84;84.20
28175;SHT30;59417;44.788;10.334;2022-11-15T11:14:35;11.81;84.17
28175;SHT30;59417;44.788;10.334;2022-11-15T11:25:40;11.62;86.24
28175;SHT30;59417;44.788;10.334;2022-11-15T11:28:25;11.63;85.23
28175;SHT30;59417;44.788;10.334;2022-11-15T11:33:31;11.70;85.71
28175;SHT30;59417;44.788;10.334;2022-11-15T11:47:00;11.70;85.82
28175;SHT30;59417;44.788;10.334;2022-11-15T11:52:08;11.71;85.55
28175;SHT30;59417;44.788;10.334;2022-11-15T11:55:29;11.70;86.01
28175;SHT30;59417;44.788;10.334;2022-11-15T12:00:26;11.64;86.66
28175;SHT30;59417;44.788;10.334;2022-11-15T12:08:15;11.45;86.17
28175;SHT30;59417;44.788;10.334;2022-11-15T12:10:46;11.50;86.44
28175;SHT30;59417;44.788;10.334;2022-11-15T12:13:17;11.59;86.61
28175;SHT30;59417;44.788;10.334;2022-11-15T12:18:24;11.66;86.35
28175;SHT30;59417;44.788;10.334;2022-11-15T12:23:28;11.62;86.29
28175;SHT30;59417;44.788;10.334;2022-11-15T12:26:04;11.53;85.79
28175;SHT30;59417;44.788;10.334;2022-11-15T12:28:45;11.56;86.65
28175;SHT30;59417;44.788;10.334;2022-11-15T12:33:47;11.63;87.55
28175;SHT30;59417;44.788;10.334;2022-11-15T12:39:10;11.78;86.66
28175;SHT30;59417;44.788;10.334;2022-11-15T12:42:00;11.83;85.46
28175;SHT30;59417;44.788;10.334;2022-11-15T12:59:53;11.69;85.77
28175;SHT30;59417;44.788;10.334;2022-11-15T13:02:40;11.56;87.12
28175;SHT30;59417;44.788;10.334;2022-11-15T13:17:49;11.62;86.32
28175;SHT30;59417;44.788;10.334;2022-11-15T13:23:07;11.42;86.81
28175;SHT30;59417;44.788;10.334;2022-11-15T13:28:47;11.53;87.79
28175;SHT30;59417;44.788;10.334;2022-11-15T13:33:44;11.63;86.12
28175;SHT30;59417;44.788;10.334;2022-11-15T13:36:27;11.57;87.00
28175;SHT30;59417;44.788;10.334;2022-11-15T13:41:27;11.67;85.54
28175;SHT30;59417;44.788;10.334;2022-11-15T13:43:54;11.55;85.10
28175;SHT30;59417;44.788;10.334;2022-11-15T13:46:22;11.59;85.76
28175;SHT30;59417;44.788;10.334;2022-11-15T13:48:54;11.57;85.72
28175;SHT30;59417;44.788;10.334;2022-11-15T13:51:28;11.55;85.62
28175;SHT30;59417;44.788;10.334;2022-11-15T13:57:01;11.39;87.15
28175;SHT30;59417;44.788;10.334;2022-11-15T13:59:30;11.50;86.81
28175;SHT30;59417;44.788;10.334;2022-11-15T14:01:59;11.50;87.02
28175;SHT30;59417;44.788;10.334;2022-11-15T14:04:28;11.57;86.63
28175;SHT30;59417;44.788;10.334;2022-11-15T14:07:00;11.64;86.65
28175;SHT30;59417;44.788;10.334;2022-11-15T14:09:38;11.62;85.52
28175;SHT30;59417;44.788;10.334;2022-11-15T14:12:28;11.56;85.92
28175;SHT30;59417;44.788;10.334;2022-11-15T14:14:55;11.56;86.54
28175;SHT30;59417;44.788;10.334;2022-11-15T14:19:57;11.47;86.30
28175;SHT30;59417;44.788;10.334;2022-11-15T14:22:25;11.42;86.90
28175;SHT30;59417;44.788;10.334;2022-11-15T14:25:13;11.36;87.81
28175;SHT30;59417;44.788;10.334;2022-11-15T14:27:41;11.36;88.15
28175;SHT30;59417;44.788;10.334;2022-11-15T14:30:13;11.47;86.96
28175;SHT30;59417;44.788;10.334;2022-11-15T14:32:47;11.50;86.75
28175;SHT30;59417;44.788;10.334;2022-11-15T14:35:18;11.56;87.00
28175;SHT30;59417;44.788;10.334;2022-11-15T14:37:45;11.42;87.44
28175;SHT30;59417;44.788;10.334;2022-11-15T14:40:15;11.46;87.56
28175;SHT30;59417;44.788;10.334;2022-11-15T14:42:42;11.43;87.96
28175;SHT30;59417;44.788;10.334;2022-11-15T14:45:12;11.45;87.69
28175;SHT30;59417;44.788;10.334;2022-11-15T14:47:38;11.42;87.69
28175;SHT30;59417;44.788;10.334;2022-11-15T14:50:13;11.45;88.01
28175;SHT30;59417;44.788;10.334;2022-11-15T14:52:40;11.49;87.55
28175;SHT30;59417;44.788;10.334;2022-11-15T14:55:16;11.45;87.12
28175;SHT30;59417;44.788;10.334;2022-11-15T14:57:43;11.50;87.40
28175;SHT30;59417;44.788;10.334;2022-11-15T15:00:14;11.56;86.85
28175;SHT30;59417;44.788;10.334;2022-11-15T15:02:44;11.56;86.72
28175;SHT30;59417;44.788;10.334;2022-11-15T15:05:15;11.53;86.89
28175;SHT30;59417;44.788;10.334;2022-11-15T15:07:41;11.47;87.72
28175;SHT30;59417;44.788;10.334;2022-11-15T15:10:07;11.42;87.91
28175;SHT30;59417;44.788;10.334;2022-11-15T15:12:34;11.43;88.18
28175;SHT30;59417;44.788;10.334;2022-11-15T15:15:00;11.50;87.87
28175;SHT30;59417;44.788;10.334;2022-11-15T15:17:29;11.55;87.88
28175;SHT30;59417;44.788;10.334;2022-11-15T15:19:54;11.53;87.55
28175;SHT30;59417;44.788;10.334;2022-11-15T15:22:20;11.47;87.77
28175;SHT30;59417;44.788;10.334;2022-11-15T15:24:48;11.50;87.91
28175;SHT30;59417;44.788;10.334;2022-11-15T15:27:13;11.50;88.20
28175;SHT30;59417;44.788;10.334;2022-11-15T15:29:40;11.56;88.04
28175;SHT30;59417;44.788;10.334;2022-11-15T15:32:06;11.56;88.03
28175;SHT30;59417;44.788;10.334;2022-11-15T15:34:32;11.64;88.08
28175;SHT30;59417;44.788;10.334;2022-11-15T15:37:23;11.69;87.98
28175;SHT30;59417;44.788;10.334;2022-11-15T15:39:56;11.69;87.73
28175;SHT30;59417;44.788;10.334;2022-11-15T15:42:23;11.70;87.34
28175;SHT30;59417;44.788;10.334;2022-11-15T15:44:49;11.70;87.20
28175;SHT30;59417;44.788;10.334;2022-11-15T15:47:18;11.74;87.22
28175;SHT30;59417;44.788;10.334;2022-11-15T15:49:44;11.74;87.07
28175;SHT30;59417;44.788;10.334;2022-11-15T15:52:10;11.74;87.21
28175;SHT30;59417;44.788;10.334;2022-11-15T15:54:37;11.76;87.04
28175;SHT30;59417;44.788;10.334;2022-11-15T15:57:04;11.78;86.72
28175;SHT30;59417;44.788;10.334;2022-11-15T15:59:31;11.76;86.63
28175;SHT30;59417;44.788;10.334;2022-11-15T16:01:57;11.74;86.79
28175;SHT30;59417;44.788;10.334;2022-11-15T16:04:23;11.78;86.79
28175;SHT30;59417;44.788;10.334;2022-11-15T16:06:49;11.77;86.84
28175;SHT30;59417;44.788;10.334;2022-11-15T16:09:19;11.73;86.99
28175;SHT30;59417;44.788;10.334;2022-11-15T16:12:08;11.69;87.34
28175;SHT30;59417;44.788;10.334;2022-11-15T16:14:34;11.70;87.15
28175;SHT30;59417;44.788;10.334;2022-11-15T16:16:59;11.71;86.92
28175;SHT30;59417;44.788;10.334;2022-11-15T16:19:25;11.73;86.97
28175;SHT30;59417;44.788;10.334;2022-11-15T16:21:52;11.74;87.04
28175;SHT30;59417;44.788;10.334;2022-11-15T16:24:18;11.74;87.11
28175;SHT30;59417;44.788;10.334;2022-11-15T16:26:45;11.71;87.17
28175;SHT30;59417;44.788;10.334;2022-11-15T16:29:12;11.73;86.98
28175;SHT30;59417;44.788;10.334;2022-11-15T16:31:38;11.69;87.15
28175;SHT30;59417;44.788;10.334;2022-11-15T16:34:04;11.69;87.22
28175;SHT30;59417;44.788;10.334;2022-11-15T16:36:34;11.73;87.12
28175;SHT30;59417;44.788;10.334;2022-11-15T16:39:01;11.73;87.21
28175;SHT30;59417;44.788;10.334;2022-11-15T16:41:31;11.73;87.18
28175;SHT30;59417;44.788;10.334;2022-11-15T16:43:56;11.76;87.04
28175;SHT30;59417;44.788;10.334;2022-11-15T16:46:26;11.73;87.11
28175;SHT30;59417;44.788;10.334;2022-11-15T16:48:57;11.71;87.11
28175;SHT30;59417;44.788;10.334;2022-11-15T16:51:26;11.74;87.26
28175;SHT30;59417;44.788;10.334;2022-11-15T16:53:52;11.78;87.23
28175;SHT30;59417;44.788;10.334;2022-11-15T16:56:23;11.81;87.12
28175;SHT30;59417;44.788;10.334;2022-11-15T16:58:49;11.77;87.22
28175;SHT30;59417;44.788;10.334;2022-11-15T17:01:18;11.77;86.97
28175;SHT30;59417;44.788;10.334;2022-11-15T17:03:44;11.77;86.81
28175;SHT30;59417;44.788;10.334;2022-11-15T17:06:12;11.80;86.66
28175;SHT30;59417;44.788;10.334;2022-11-15T17:08:37;11.83;86.75
28175;SHT30;59417;44.788;10.334;2022-11-15T17:11:07;11.84;86.89
28175;SHT30;59417;44.788;10.334;2022-11-15T17:13:34;11.78;86.90
28175;SHT30;59417;44.788;10.334;2022-11-15T17:16:10;11.81;86.93
28175;SHT30;59417;44.788;10.334;2022-11-15T17:18:37;11.80;86.96
28175;SHT30;59417;44.788;10.334;2022-11-15T17:21:15;11.80;86.94
28175;SHT30;59417;44.788;10.334;2022-11-15T17:23:45;11.77;86.99
28175;SHT30;59417;44.788;10.334;2022-11-15T17:26:14;11.81;87.05
28175;SHT30;59417;44.788;10.334;2022-11-15T17:28:41;11.81;87.01
28175;SHT30;59417;44.788;10.334;2022-11-15T17:31:08;11.78;87.03
28175;SHT30;59417;44.788;10.334;2022-11-15T17:33:34;11.86;87.01
28175;SHT30;59417;44.788;10.334;2022-11-15T17:36:04;11.86;86.92
28175;SHT30;59417;44.788;10.334;2022-11-15T17:38:30;11.84;86.89
28175;SHT30;59417;44.788;10.334;2022-11-15T17:41:11;11.80;87.01
28175;SHT30;59417;44.788;10.334;2022-11-15T17:43:40;11.77;87.08
28175;SHT30;59417;44.788;10.334;2022-11-15T17:46:21;11.77;87.06
28175;SHT30;59417;44.788;10.334;2022-11-15T17:48:54;11.80;86.93
28175;SHT30;59417;44.788;10.334;2022-11-15T17:51:21;11.80;86.68
28175;SHT30;59417;44.788;10.334;2022-11-15T17:54:25;11.78;86.64
28175;SHT30;59417;44.788;10.334;2022-11-15T19:20:51;11.70;87.28
28175;SHT30;59417;44.788;10.334;2022-11-15T19:23:17;11.77;87.06
28175;SHT30;59417;44.788;10.334;2022-11-15T19:25:55;11.80;86.63
28175;SHT30;59417;44.788;10.334;2022-11-15T19:28:21;11.78;86.91
28175;SHT30;59417;44.788;10.334;2022-11-15T19:30:50;11.80;86.84
28175;SHT30;59417;44.788;10.334;2022-11-15T19:33:17;11.80;86.69
28175;SHT30;59417;44.788;10.334;2022-11-15T19:35:48;11.74;86.98
28175;SHT30;59417;44.788;10.334;2022-11-15T19:38:14;11.71;87.08
28175;SHT30;59417;44.788;10.334;2022-11-15T19:40:40;11.71;87.19
28175;SHT30;59417;44.788;10.334;2022-11-15T19:43:06;11.76;87.18
28175;SHT30;59417;44.788;10.334;2022-11-15T19:45:33;11.80;86.99
28175;SHT30;59417;44.788;10.334;2022-11-15T19:47:59;11.80;86.92
28175;SHT30;59417;44.788;10.334;2022-11-15T19:50:25;11.83;86.64
28175;SHT30;59417;44.788;10.334;2022-11-15T19:52:51;11.83;86.74
28175;SHT30;59417;44.788;10.334;2022-11-15T19:55:17;11.80;86.86
28175;SHT30;59417;44.788;10.334;2022-11-15T19:57:43;11.77;86.81
28175;SHT30;59417;44.788;10.334;2022-11-15T20:00:09;11.81;86.74
28175;SHT30;59417;44.788;10.334;2022-11-15T20:02:35;11.80;86.81
28175;SHT30;59417;44.788;10.334;2022-11-15T20:05:01;11.74;86.94